createdAt,value
2019-02-25T00:01:56.882Z,102613.61
2019-02-25T00:04:25.707Z,102607.28
2019-02-25T00:06:54.543Z,102601.98
2019-02-25T00:09:23.443Z,102598.38
2019-02-25T00:11:52.357Z,102591.19
2019-02-25T00:14:21.174Z,102593.86
2019-02-25T00:16:50.135Z,102583.12
2019-02-25T00:19:19.036Z,102579.81
2019-02-25T00:21:47.913Z,102574.52
2019-02-25T00:24:16.776Z,102567.12
2019-02-25T00:26:45.601Z,102567.56
2019-02-25T00:29:14.370Z,102573.48
2019-02-25T00:31:43.260Z,102573.63
2019-02-25T00:34:12.114Z,102571.52
2019-02-25T00:36:40.826Z,102575.89
2019-02-25T00:39:09.733Z,102576.66
2019-02-25T00:41:38.496Z,102583.38
2019-02-25T00:44:07.252Z,102583.84
2019-02-25T00:46:35.972Z,102576.36
2019-02-25T00:49:04.781Z,102577.95
2019-02-25T00:51:33.723Z,102576.00
2019-02-25T00:54:02.584Z,102580.52
2019-02-25T00:56:31.474Z,102585.89
2019-02-25T00:59:00.407Z,102592.56
2019-02-25T01:01:29.231Z,102585.70
2019-02-25T01:03:58.089Z,102592.64
2019-02-25T01:06:26.865Z,102596.41
2019-02-25T01:08:55.685Z,102595.82
2019-02-25T01:11:24.447Z,102585.61
2019-02-25T01:16:20.899Z,102578.13
2019-02-25T01:18:49.756Z,102573.45
2019-02-25T01:21:18.610Z,102563.34
2019-02-25T01:23:48.908Z,102569.22
2019-02-25T01:26:17.822Z,102569.98
2019-02-25T01:28:48.231Z,102567.20
2019-02-25T01:31:17.007Z,102566.56
2019-02-25T01:33:45.958Z,102565.44
2019-02-25T01:36:14.892Z,102553.15
2019-02-25T01:38:43.818Z,102553.88
2019-02-25T01:41:12.579Z,102555.17
2019-02-25T01:43:41.407Z,102553.22
2019-02-25T01:46:10.172Z,102549.88
2019-02-25T01:48:38.999Z,102548.14
2019-02-25T01:51:07.798Z,102550.77
2019-02-25T01:53:36.554Z,102545.56
2019-02-25T01:56:05.390Z,102538.41
2019-02-25T01:58:34.133Z,102536.72
2019-02-25T02:01:02.963Z,102534.77
2019-02-25T02:03:31.769Z,102530.39
2019-02-25T02:06:00.547Z,102528.97
2019-02-25T02:08:29.344Z,102522.08
2019-02-25T02:10:58.130Z,102522.84
2019-02-25T02:13:26.939Z,102523.89
2019-02-25T02:15:55.831Z,102520.25
2019-02-25T02:18:24.641Z,102530.81
2019-02-25T02:20:53.408Z,102532.41
2019-02-25T02:23:22.169Z,102529.91
2019-02-25T02:25:50.982Z,102531.70
2019-02-25T02:28:19.749Z,102536.50
2019-02-25T02:30:48.479Z,102541.34
2019-02-25T02:33:17.245Z,102537.45
2019-02-25T02:35:46.118Z,102543.64
2019-02-25T02:38:14.897Z,102540.86
2019-02-25T02:40:43.642Z,102550.03
2019-02-25T02:43:12.502Z,102558.94
2019-02-25T02:45:48.133Z,102559.69
2019-02-25T02:48:41.236Z,102557.50
2019-02-25T02:51:10.149Z,102562.53
2019-02-25T02:53:39.016Z,102552.73
2019-02-25T02:56:08.178Z,102548.05
2019-02-25T02:58:37.028Z,102549.31
2019-02-25T03:01:05.862Z,102544.41
2019-02-25T03:03:34.690Z,102549.23
2019-02-25T03:06:03.500Z,102550.48
2019-02-25T03:08:32.402Z,102551.55
2019-02-25T03:11:01.192Z,102555.84
2019-02-25T03:13:30.067Z,102550.34
2019-02-25T03:15:58.896Z,102543.45
2019-02-25T03:18:27.703Z,102545.86
2019-02-25T03:20:56.419Z,102548.28
2019-02-25T03:23:25.311Z,102555.29
2019-02-25T03:25:54.185Z,102542.97
2019-02-25T03:28:22.934Z,102546.14
2019-02-25T03:30:51.884Z,102546.44
2019-02-25T03:33:20.789Z,102553.97
2019-02-25T03:35:49.633Z,102545.53
2019-02-25T03:38:18.412Z,102546.78
2019-02-25T03:40:47.158Z,102556.28
2019-02-25T03:43:16.032Z,102557.86
2019-02-25T03:45:44.926Z,102558.28
2019-02-25T03:48:13.757Z,102556.09
2019-02-25T03:50:42.618Z,102556.32
2019-02-25T03:53:11.384Z,102559.26
2019-02-25T03:55:40.250Z,102564.58
2019-02-25T03:58:09.004Z,102575.13
2019-02-25T04:00:37.844Z,102572.11
2019-02-25T04:03:06.566Z,102583.19
2019-02-25T04:05:35.347Z,102573.09
2019-02-25T04:08:04.146Z,102571.92
2019-02-25T04:10:32.963Z,102567.25
2019-02-25T04:13:01.713Z,102570.48
2019-02-25T04:15:34.706Z,102562.58
2019-02-25T04:18:02.729Z,102565.52
2019-02-25T04:20:31.389Z,102569.25
2019-02-25T04:23:00.131Z,102555.61
2019-02-25T04:25:29.004Z,102561.25
2019-02-25T04:27:57.778Z,102564.69
2019-02-25T04:30:26.580Z,102567.92
2019-02-25T04:32:55.542Z,102562.20
2019-02-25T04:35:24.317Z,102570.86
2019-02-25T04:37:53.188Z,102575.64
2019-02-25T04:40:21.994Z,102578.58
2019-02-25T04:42:50.755Z,102582.64
2019-02-25T04:45:19.566Z,102582.84
2019-02-25T04:47:48.403Z,102576.28
2019-02-25T04:50:17.240Z,102576.50
2019-02-25T04:52:46.114Z,102571.61
2019-02-25T04:55:14.979Z,102570.97
2019-02-25T04:57:43.774Z,102567.65
2019-02-25T05:00:14.571Z,102567.34
2019-02-25T05:02:43.484Z,102570.58
2019-02-25T05:05:12.364Z,102567.27
2019-02-25T05:07:41.190Z,102582.36
2019-02-25T05:10:11.462Z,102580.18
2019-02-25T05:12:42.480Z,102578.52
2019-02-25T05:15:13.703Z,102578.22
2019-02-25T05:17:42.442Z,102573.02
2019-02-25T05:20:11.216Z,102575.42
2019-02-25T05:22:40.034Z,102569.66
2019-02-25T05:25:08.916Z,102573.13
2019-02-25T05:27:37.801Z,102575.83
2019-02-25T05:30:08.618Z,102577.41
2019-02-25T05:32:37.229Z,102573.56
2019-02-25T05:35:06.805Z,102571.05
2019-02-25T05:37:35.771Z,102574.50
2019-02-25T05:40:05.307Z,102576.91
2019-02-25T05:42:34.288Z,102584.73
2019-02-25T05:45:02.965Z,102586.61
2019-02-25T05:47:31.793Z,102585.97
2019-02-25T05:50:00.621Z,102589.73
2019-02-25T05:52:29.352Z,102590.26
2019-02-25T05:54:58.175Z,102576.09
2019-02-25T05:57:26.975Z,102572.56
2019-02-25T05:59:55.834Z,102568.19
2019-02-25T06:02:24.560Z,102570.56
2019-02-25T06:04:53.560Z,102568.59
2019-02-25T06:07:22.364Z,102568.81
2019-02-25T06:09:51.249Z,102571.00
2019-02-25T06:12:20.022Z,102575.48
2019-02-25T06:14:48.971Z,102576.53
2019-02-25T06:17:17.721Z,102576.74
2019-02-25T06:19:46.548Z,102575.39
2019-02-25T06:22:15.378Z,102574.56
2019-02-25T06:24:44.216Z,102568.01
2019-02-25T06:27:12.977Z,102571.24
2019-02-25T06:29:41.864Z,102570.91
2019-02-25T06:32:10.708Z,102572.48
2019-02-25T06:34:39.534Z,102577.28
2019-02-25T06:37:08.349Z,102580.00
2019-02-25T06:39:37.279Z,102575.84
2019-02-25T06:42:06.245Z,102575.51
2019-02-25T06:44:35.169Z,102578.13
2019-02-25T06:47:04.041Z,102578.66
2019-02-25T06:49:32.825Z,102579.40
2019-02-25T06:52:02.936Z,102576.69
2019-02-25T06:54:31.731Z,102581.46
2019-02-25T06:57:00.559Z,102595.31
2019-02-25T06:59:29.418Z,102588.88
2019-02-25T07:01:58.371Z,102601.46
2019-02-25T07:04:41.212Z,102598.67
2019-02-25T07:07:17.531Z,102605.31
2019-02-25T07:10:11.807Z,102606.26
2019-02-25T07:13:02.793Z,102601.05
2019-02-25T07:16:08.754Z,102597.59
2019-02-25T07:19:02.715Z,102595.17
2019-02-25T07:21:41.334Z,102599.34
2019-02-25T07:24:35.641Z,102601.50
2019-02-25T07:27:29.402Z,102615.56
2019-02-25T07:30:16.654Z,102612.08
2019-02-25T07:33:03.244Z,102617.48
2019-02-25T07:35:43.668Z,102623.73
2019-02-25T07:38:39.145Z,102627.48
2019-02-25T07:41:16.821Z,102617.13
2019-02-25T07:44:07.841Z,102624.41
2019-02-25T07:46:58.780Z,102632.40
2019-02-25T07:49:42.182Z,102636.66
2019-02-25T07:52:28.578Z,102637.47
2019-02-25T07:55:09.365Z,102642.09
2019-02-25T07:57:46.373Z,102649.23
2019-02-25T08:00:23.383Z,102650.97
2019-02-25T08:03:17.459Z,102658.39
2019-02-25T08:05:52.513Z,102657.07
2019-02-25T08:08:55.497Z,102659.34
2019-02-25T08:11:41.868Z,102659.99
2019-02-25T08:14:38.515Z,102658.48
2019-02-25T08:17:24.955Z,102652.22
2019-02-25T08:20:04.218Z,102641.70
2019-02-25T08:23:07.468Z,102639.66
2019-02-25T08:26:04.065Z,102636.59
2019-02-25T08:28:51.950Z,102642.66
2019-02-25T08:31:57.751Z,102635.81
2019-02-25T08:34:54.797Z,102633.98
2019-02-25T08:37:56.209Z,102645.17
2019-02-25T08:41:03.410Z,102644.47
2019-02-25T08:43:37.398Z,102648.94
2019-02-25T08:46:31.204Z,102640.08
2019-02-25T08:49:06.923Z,102639.12
2019-02-25T08:51:35.877Z,102650.11
2019-02-25T08:54:04.716Z,102654.72
2019-02-25T08:56:33.699Z,102649.42
2019-02-25T08:59:02.468Z,102650.78
2019-02-25T09:01:31.289Z,102646.95
2019-02-25T09:04:00.021Z,102639.14
2019-02-25T09:06:29.047Z,102639.67
2019-02-25T09:08:57.855Z,102642.51
2019-02-25T09:11:26.781Z,102644.88
2019-02-25T09:13:55.677Z,102651.80
2019-02-25T09:16:24.461Z,102651.59
2019-02-25T09:18:53.365Z,102646.17
2019-02-25T09:21:22.291Z,102654.30
2019-02-25T09:23:51.132Z,102654.61
2019-02-25T09:26:19.983Z,102656.48
2019-02-25T09:28:48.910Z,102656.79
2019-02-25T09:31:17.802Z,102661.38
2019-02-25T09:33:47.984Z,102655.95
2019-02-25T09:36:16.789Z,102650.66
2019-02-25T09:38:48.452Z,102647.31
2019-02-25T09:41:17.467Z,102637.95
2019-02-25T09:43:46.520Z,102646.38
2019-02-25T09:46:15.460Z,102646.98
2019-02-25T09:48:44.350Z,102648.98
2019-02-25T09:51:13.176Z,102648.98
2019-02-25T09:53:42.022Z,102648.98
2019-02-25T09:56:10.790Z,102645.23
2019-02-25T09:58:39.602Z,102648.98
2019-02-25T10:01:08.633Z,102651.17
2019-02-25T10:03:37.631Z,102642.83
2019-02-25T10:06:06.510Z,102639.59
2019-02-25T10:08:35.463Z,102639.90
2019-02-25T10:11:04.293Z,102639.06
2019-02-25T10:13:33.067Z,102638.77
2019-02-25T10:16:01.944Z,102634.08
2019-02-25T10:18:30.807Z,102638.98
2019-02-25T10:20:59.737Z,102641.99
2019-02-25T10:23:28.487Z,102638.45
2019-02-25T10:25:57.316Z,102640.19
2019-02-25T10:28:26.211Z,102643.63
2019-02-25T10:30:55.104Z,102644.77
2019-02-25T10:33:23.898Z,102633.70
2019-02-25T10:35:52.779Z,102632.69
2019-02-25T10:38:21.672Z,102627.58
2019-02-25T10:40:52.161Z,102628.71
2019-02-25T10:43:21.180Z,102628.19
2019-02-25T10:45:50.086Z,102631.95
2019-02-25T10:48:19.862Z,102621.11
2019-02-25T10:50:55.800Z,102619.45
2019-02-25T10:53:21.997Z,102620.49
2019-02-25T10:55:56.537Z,102609.23
2019-02-25T10:58:26.966Z,102607.66
2019-02-25T11:00:56.182Z,102609.53
2019-02-25T11:03:25.037Z,102607.88
2019-02-25T11:05:56.208Z,102599.97
2019-02-25T11:08:24.676Z,102599.97
2019-02-25T11:10:58.826Z,102588.91
2019-02-25T11:13:29.670Z,102581.60
2019-02-25T11:15:58.217Z,102581.91
2019-02-25T11:18:28.463Z,102574.42
2019-02-25T11:20:58.998Z,102577.73
2019-02-25T11:23:28.285Z,102571.48
2019-02-25T11:25:57.981Z,102570.22
2019-02-25T11:28:27.624Z,102567.62
2019-02-25T11:30:56.485Z,102563.33
2019-02-25T11:33:27.495Z,102556.86
2019-02-25T11:35:56.061Z,102554.45
2019-02-25T11:38:26.117Z,102554.56
2019-02-25T11:40:55.643Z,102546.52
2019-02-25T11:43:24.508Z,102542.00
2019-02-25T11:45:53.407Z,102542.64
2019-02-25T11:48:22.735Z,102537.52
2019-02-25T11:50:51.851Z,102528.64
2019-02-25T11:53:20.785Z,102521.67
2019-02-25T11:55:49.769Z,102514.03
2019-02-25T11:58:18.711Z,102512.26
2019-02-25T12:00:47.567Z,102509.84
2019-02-25T12:03:16.415Z,102501.48
2019-02-25T12:05:45.385Z,102495.54
2019-02-25T12:08:14.352Z,102491.47
2019-02-25T12:10:43.274Z,102489.92
2019-02-25T12:13:12.214Z,102486.16
2019-02-25T12:15:41.227Z,102485.97
2019-02-25T12:18:10.136Z,102477.30
2019-02-25T12:20:40.419Z,102472.70
2019-02-25T12:23:09.258Z,102469.24
2019-02-25T12:25:38.133Z,102457.97
2019-02-25T12:28:07.037Z,102446.17
2019-02-25T12:30:36.001Z,102455.44
2019-02-25T12:33:04.777Z,102455.44
2019-02-25T12:35:33.635Z,102452.50
2019-02-25T12:38:02.522Z,102439.77
2019-02-25T12:40:31.448Z,102436.83
2019-02-25T12:43:00.450Z,102429.52
2019-02-25T12:45:29.354Z,102425.45
2019-02-25T12:47:58.189Z,102414.83
2019-02-25T12:50:27.034Z,102413.41
2019-02-25T12:52:55.914Z,102413.93
2019-02-25T12:55:24.703Z,102415.06
2019-02-25T12:57:53.596Z,102409.94
2019-02-25T13:00:22.468Z,102418.67
2019-02-25T13:02:51.398Z,102409.17
2019-02-25T13:05:20.390Z,102403.55
2019-02-25T13:07:49.379Z,102401.67
2019-02-25T13:10:18.609Z,102403.63
2019-02-25T13:12:47.524Z,102409.87
2019-02-25T13:15:16.402Z,102404.98
2019-02-25T13:17:45.318Z,102407.09
2019-02-25T13:20:14.300Z,102403.68
2019-02-25T13:22:43.212Z,102397.25
2019-02-25T13:25:13.228Z,102397.91
2019-02-25T13:27:42.204Z,102396.14
2019-02-25T13:30:13.663Z,102401.98
2019-02-25T13:32:42.598Z,102396.27
2019-02-25T13:35:12.070Z,102380.75
2019-02-25T13:37:41.075Z,102378.34
2019-02-25T13:40:10.219Z,102379.47
2019-02-25T13:42:39.089Z,102371.44
2019-02-25T13:45:08.877Z,102379.88
2019-02-25T13:47:37.800Z,102375.61
2019-02-25T13:50:07.078Z,102382.39
2019-02-25T13:52:35.986Z,102380.80
2019-02-25T13:55:05.285Z,102382.98
2019-02-25T13:57:34.147Z,102379.45
2019-02-25T14:00:03.081Z,102381.11
2019-02-25T14:02:31.905Z,102379.75
2019-02-25T14:05:01.033Z,102389.58
2019-02-25T14:07:29.950Z,102384.98
2019-02-25T14:09:58.799Z,102387.39
2019-02-25T14:12:27.974Z,102387.89
2019-02-25T14:14:56.987Z,102387.58
2019-02-25T14:17:26.443Z,102387.58
2019-02-25T14:19:55.590Z,102388.64
2019-02-25T14:22:24.478Z,102380.50
2019-02-25T14:24:53.557Z,102380.70
2019-02-25T14:27:22.550Z,102379.58
2019-02-25T14:29:51.563Z,102381.12
2019-02-25T14:32:20.531Z,102380.00
2019-02-25T14:34:49.665Z,102380.75
2019-02-25T14:37:20.256Z,102382.11
2019-02-25T14:39:51.587Z,102374.39
2019-02-25T14:42:21.132Z,102371.09
2019-02-25T14:44:52.277Z,102371.61
2019-02-25T14:47:25.805Z,102368.30
2019-02-25T14:49:52.022Z,102368.66
2019-02-25T14:52:21.866Z,102374.83
2019-02-25T14:54:51.714Z,102377.66
2019-02-25T14:57:20.681Z,102378.41
2019-02-25T14:59:49.690Z,102381.54
2019-02-25T15:02:18.871Z,102386.66
2019-02-25T15:04:47.669Z,102383.88
2019-02-25T15:07:16.575Z,102388.13
2019-02-25T15:09:45.817Z,102386.70
2019-02-25T15:12:14.925Z,102392.87
2019-02-25T15:14:43.772Z,102281.52
2019-02-25T15:17:14.412Z,102382.67
2019-02-25T15:19:43.309Z,102379.66
2019-02-25T15:22:12.115Z,102376.02
2019-02-25T15:24:44.159Z,102372.78
2019-02-25T15:27:12.972Z,102370.59
2019-02-25T15:29:44.497Z,102373.83
2019-02-25T15:32:12.973Z,102370.83
2019-02-25T15:34:41.876Z,102372.41
2019-02-25T15:37:11.820Z,102370.41
2019-02-25T15:39:42.395Z,102374.48
2019-02-25T15:42:11.632Z,102370.94
2019-02-25T15:44:42.339Z,102365.86
2019-02-25T15:47:12.868Z,102362.62
2019-02-25T15:49:41.815Z,102361.45
2019-02-25T15:52:14.441Z,102361.38
2019-02-25T15:54:43.224Z,102365.75
2019-02-25T15:57:12.275Z,102361.98
2019-02-25T15:59:41.202Z,102355.44
2019-02-25T16:02:13.522Z,102353.03
2019-02-25T16:04:42.378Z,102355.73
2019-02-25T16:07:11.662Z,102348.89
2019-02-25T16:09:40.732Z,102354.61
2019-02-25T16:12:09.749Z,102353.78
2019-02-25T16:14:39.052Z,102352.95
2019-02-25T16:17:08.262Z,102354.20
2019-02-25T16:19:43.797Z,102356.22
2019-02-25T16:22:09.635Z,102356.64
2019-02-25T16:24:38.745Z,102351.22
2019-02-25T16:27:07.609Z,102356.41
2019-02-25T16:29:36.456Z,102356.19
2019-02-25T16:32:05.378Z,102357.81
2019-02-25T16:34:35.799Z,102356.40
2019-02-25T16:37:05.799Z,102360.09
2019-02-25T16:39:34.692Z,102359.51
2019-02-25T16:42:03.567Z,102357.36
2019-02-25T16:44:32.592Z,102361.66
2019-02-25T16:47:01.731Z,102362.02
2019-02-25T16:49:31.781Z,102361.29
2019-02-25T16:52:02.274Z,102363.24
2019-02-25T16:54:31.251Z,102361.88
2019-02-25T16:57:01.748Z,102362.58
2019-02-25T16:59:30.669Z,102358.03
2019-02-25T17:02:00.117Z,102364.98
2019-02-25T17:04:31.852Z,102359.71
2019-02-25T17:07:01.195Z,102367.52
2019-02-25T17:09:31.962Z,102372.54
2019-02-25T17:12:02.874Z,102366.53
2019-02-25T17:14:32.567Z,102370.88
2019-02-25T17:17:01.749Z,102373.89
2019-02-25T17:19:30.724Z,102369.79
2019-02-25T17:21:59.683Z,102373.24
2019-02-25T17:24:30.351Z,102373.09
2019-02-25T17:27:00.013Z,102379.41
2019-02-25T17:29:31.896Z,102375.63
2019-02-25T17:32:01.939Z,102374.80
2019-02-25T17:34:32.293Z,102383.20
2019-02-25T17:37:02.014Z,102380.95
2019-02-25T17:39:31.696Z,102377.08
2019-02-25T17:42:03.411Z,102386.00
2019-02-25T17:44:34.863Z,102389.84
2019-02-25T17:47:04.583Z,102391.41
2019-02-25T17:49:35.747Z,102391.42
2019-02-25T17:52:05.002Z,102390.41
2019-02-25T17:54:35.587Z,102394.66
2019-02-25T17:57:05.363Z,102388.02
2019-02-25T17:59:35.459Z,102391.60
2019-02-25T18:02:06.161Z,102388.57
2019-02-25T18:04:35.364Z,102380.27
2019-02-25T18:07:04.436Z,102390.20
2019-02-25T18:09:33.534Z,102385.33
2019-02-25T18:12:04.303Z,102392.43
2019-02-25T18:14:33.838Z,102393.86
2019-02-25T18:17:03.394Z,102390.89
2019-02-25T18:19:33.896Z,102398.45
2019-02-25T18:22:04.548Z,102389.23
2019-02-25T18:24:33.566Z,102388.45
2019-02-25T18:27:04.409Z,102388.23
2019-02-25T18:29:33.768Z,102400.22
2019-02-25T18:32:04.217Z,102400.97
2019-02-25T18:34:36.472Z,102403.08
2019-02-25T18:37:07.044Z,102400.89
2019-02-25T18:39:35.886Z,102396.52
2019-02-25T18:42:05.603Z,102396.19
2019-02-25T18:44:35.269Z,102394.75
2019-02-25T18:47:04.481Z,102401.52
2019-02-25T18:49:34.979Z,102389.72
2019-02-25T18:52:05.837Z,102394.09
2019-02-25T18:54:36.807Z,102397.75
2019-02-25T18:57:07.630Z,102401.11
2019-02-25T18:59:37.172Z,102401.52
2019-02-25T19:02:07.978Z,102392.86
2019-02-25T19:04:39.221Z,102393.52
2019-02-25T19:07:10.374Z,102394.50
2019-02-25T19:09:43.040Z,102398.98
2019-02-25T19:12:12.212Z,102400.08
2019-02-25T19:14:41.903Z,102403.80
2019-02-25T19:17:11.505Z,102402.64
2019-02-25T19:19:42.563Z,102397.13
2019-02-25T19:22:15.231Z,102398.15
2019-02-25T19:24:45.042Z,102393.43
2019-02-25T19:27:16.349Z,102397.50
2019-02-25T19:29:47.682Z,102401.31
2019-02-25T19:32:18.173Z,102403.98
2019-02-25T19:34:48.697Z,102400.41
2019-02-25T19:37:18.170Z,102395.97
2019-02-25T19:39:48.813Z,102400.58
2019-02-25T19:42:20.829Z,102396.94
2019-02-25T19:44:49.261Z,102392.81
2019-02-25T19:47:19.442Z,102394.66
2019-02-25T19:49:49.023Z,102387.27
2019-02-25T19:52:18.560Z,102381.52
2019-02-25T19:54:48.766Z,102379.02
2019-02-25T19:57:21.674Z,102384.16
2019-02-25T19:59:51.141Z,102382.22
2019-02-25T20:02:22.605Z,102390.06
2019-02-25T20:04:52.088Z,102385.34
2019-02-25T20:07:25.682Z,102383.05
2019-02-25T20:09:52.271Z,102382.11
2019-02-25T20:12:21.856Z,102379.79
2019-02-25T20:14:51.100Z,102387.38
2019-02-25T20:17:26.092Z,102383.72
2019-02-25T20:19:55.122Z,102390.16
2019-02-25T20:22:24.518Z,102381.59
2019-02-25T20:24:55.238Z,102380.12
2019-02-25T20:27:25.450Z,102374.81
2019-02-25T20:29:55.879Z,102370.08
2019-02-25T20:32:26.410Z,102368.11
2019-02-25T20:34:57.189Z,102367.47
2019-02-25T20:37:27.361Z,102362.98
2019-02-25T20:39:58.127Z,102360.44
2019-02-25T20:42:28.554Z,102366.61
2019-02-25T20:44:59.846Z,102366.50
2019-02-25T20:47:28.927Z,102370.23
2019-02-25T20:50:00.437Z,102371.62
2019-02-25T20:52:29.556Z,102378.69
2019-02-25T20:55:01.076Z,102382.62
2019-02-25T20:57:31.635Z,102380.39
2019-02-25T21:00:04.038Z,102375.98
2019-02-25T21:02:32.923Z,102368.05
2019-02-25T21:05:02.035Z,102372.39
2019-02-25T21:07:32.288Z,102372.09
2019-02-25T21:10:03.998Z,102373.92
2019-02-25T21:12:33.302Z,102383.16
2019-02-25T21:15:02.802Z,102382.05
2019-02-25T21:17:33.227Z,102374.34
2019-02-25T21:20:04.535Z,102373.22
2019-02-25T21:22:34.041Z,102374.53
2019-02-25T21:25:04.860Z,102381.27
2019-02-25T21:27:36.974Z,102377.38
2019-02-25T21:30:08.300Z,102375.62
2019-02-25T21:32:37.351Z,102384.27
2019-02-25T21:35:07.471Z,102386.33
2019-02-25T21:37:36.468Z,102391.44
2019-02-25T21:40:07.410Z,102392.19
2019-02-25T21:42:36.364Z,102396.45
2019-02-25T21:45:06.195Z,102390.11
2019-02-25T21:47:35.268Z,102391.12
2019-02-25T21:50:06.840Z,102391.05
2019-02-25T21:52:35.022Z,102380.65
2019-02-25T21:55:07.525Z,102377.55
2019-02-25T21:57:37.617Z,102385.13
2019-02-25T22:00:09.280Z,102378.48
2019-02-25T22:02:41.169Z,102382.81
2019-02-25T22:05:11.662Z,102373.16
2019-02-25T22:07:39.838Z,102370.92
2019-02-25T22:10:09.771Z,102370.84
2019-02-25T22:12:40.525Z,102381.12
2019-02-25T22:15:11.333Z,102370.70
2019-02-25T22:17:43.896Z,102373.08
2019-02-25T22:20:14.370Z,102377.10
2019-02-25T22:22:43.268Z,102379.73
2019-02-25T22:25:15.307Z,102385.13
2019-02-25T22:27:45.575Z,102384.50
2019-02-25T22:30:16.433Z,102384.45
2019-02-25T22:32:45.345Z,102385.42
2019-02-25T22:35:15.088Z,102390.53
2019-02-25T22:37:46.722Z,102392.37
2019-02-25T22:40:16.940Z,102398.58
2019-02-25T22:42:49.348Z,102387.91
2019-02-25T22:45:18.233Z,102378.87
2019-02-25T22:47:47.084Z,102376.07
2019-02-25T22:50:16.090Z,102368.39
2019-02-25T22:52:44.922Z,102363.73
2019-02-25T22:55:15.382Z,102363.11
2019-02-25T22:57:46.052Z,102351.35
2019-02-25T23:00:58.312Z,102345.33
2019-02-25T23:03:27.513Z,102340.63
2019-02-25T23:05:55.877Z,102350.09
2019-02-25T23:08:25.983Z,102342.91
2019-02-25T23:10:55.001Z,102339.90
2019-02-25T23:13:25.062Z,102327.61
2019-02-25T23:15:54.521Z,102331.40
2019-02-25T23:18:27.304Z,102338.10
2019-02-25T23:20:57.012Z,102338.05
2019-02-25T23:23:26.473Z,102331.98
2019-02-25T23:25:56.529Z,102335.47
2019-02-25T23:28:27.962Z,102335.41
2019-02-25T23:30:56.674Z,102336.16
2019-02-25T23:33:25.593Z,102338.28
2019-02-25T23:35:56.013Z,102336.62
2019-02-25T23:38:25.027Z,102339.05
2019-02-25T23:40:53.965Z,102341.67
2019-02-25T23:43:22.794Z,102338.13
2019-02-25T23:45:51.647Z,102343.50
2019-02-25T23:48:20.603Z,102339.37
2019-02-25T23:50:50.316Z,102339.04
2019-02-25T23:53:20.089Z,102330.30
2019-02-25T23:55:50.073Z,102332.95
2019-02-25T23:58:20.180Z,102328.55
